Time;durP1;ratioP1;P1;durP2;ratioP2;P2;SDS_P1;SDS_P2;PMS_P1;PMS_P2;Temp;Humidity;BMP_temperature;BMP_pressure;BME280_temperature;BME280_humidity;BME280_pressure;Samples;Min_cycle;Max_cycle;Signal;HPM_P1;HPM_P2
2021/06/15 00:00:34;;;;;;;8.98;7.78;;;;;;;19.36;100.00;99640.16;1680244;84;21062;-63
2021/06/15 00:03:01;;;;;;;11.28;8.33;;;;;;;19.31;100.00;99650.64;1682213;84;20935;-64
2021/06/15 00:09:11;;;;;;;9.33;8.35;;;;;;;19.26;100.00;99639.23;1749022;78;23014;-63
2021/06/15 00:11:40;;;;;;;9.20;7.80;;;;;;;19.18;100.00;99638.20;1746703;82;21349;-62
2021/06/15 00:14:07;;;;;;;9.38;7.03;;;;;;;19.17;100.00;99636.44;1747136;82;21086;-63
2021/06/15 00:16:34;;;;;;;9.80;8.13;;;;;;;19.14;100.00;99632.12;1747392;82;20931;-62
2021/06/15 00:19:01;;;;;;;13.72;8.50;;;;;;;19.14;100.00;99640.33;1747184;82;20964;-63
2021/06/15 00:21:28;;;;;;;9.08;8.13;;;;;;;19.13;100.00;99633.13;1746447;82;20919;-62
2021/06/15 00:23:55;;;;;;;11.45;7.95;;;;;;;19.13;100.00;99631.77;1746733;82;21615;-63
2021/06/15 00:26:22;;;;;;;10.03;7.80;;;;;;;19.13;100.00;99633.13;1746091;82;21135;-61
2021/06/15 00:28:48;;;;;;;8.63;7.65;;;;;;;19.13;100.00;99630.91;1747513;82;21389;-61
2021/06/15 00:31:16;;;;;;;9.63;8.63;;;;;;;19.12;100.00;99628.64;1746378;82;20920;-58
2021/06/15 00:33:42;;;;;;;12.88;8.03;;;;;;;19.10;100.00;99623.31;1746524;80;20959;-58
2021/06/15 00:36:09;;;;;;;11.57;8.20;;;;;;;19.10;100.00;99623.31;1747304;82;20939;-60
2021/06/15 00:38:36;;;;;;;11.93;8.03;;;;;;;19.09;100.00;99622.95;1745606;82;21746;-59
2021/06/15 00:41:03;;;;;;;11.85;7.78;;;;;;;19.08;100.00;99617.12;1747337;82;20959;-59
2021/06/15 00:43:30;;;;;;;11.25;7.78;;;;;;;19.08;100.00;99620.37;1745755;82;20939;-59
2021/06/15 00:45:57;;;;;;;11.03;7.92;;;;;;;19.07;100.00;99620.87;1746804;82;21445;-59
2021/06/15 00:48:33;;;;;;;9.73;8.13;;;;;;;19.07;100.00;99614.55;1743922;80;20944;-59
2021/06/15 00:51:01;;;;;;;9.28;8.18;;;;;;;19.07;100.00;99619.50;1746793;82;21327;-59
2021/06/15 00:53:28;;;;;;;11.10;8.03;;;;;;;19.07;100.00;99624.11;1745436;82;20896;-60
2021/06/15 00:55:55;;;;;;;12.10;8.20;;;;;;;19.08;100.00;99623.10;1745556;80;20952;-63
2021/06/15 00:58:22;;;;;;;8.93;7.58;;;;;;;19.11;100.00;99626.91;1745282;82;20916;-61
2021/06/15 01:00:50;;;;;;;9.48;8.48;;;;;;;19.12;100.00;99625.91;1748173;82;21551;-61
2021/06/15 01:03:17;;;;;;;9.80;8.78;;;;;;;19.13;100.00;99627.66;1746381;82;21103;-62
2021/06/15 01:05:44;;;;;;;11.68;8.88;;;;;;;19.14;100.00;99622.55;1747213;82;21478;-59
2021/06/15 01:08:43;;;;;;;13.83;8.43;;;;;;;19.14;100.00;99622.55;1740847;81;21497;-60
2021/06/15 01:11:50;;;;;;;13.85;7.53;;;;;;;19.15;100.00;99625.66;1734252;82;20971;-55
2021/06/15 01:14:24;;;;;;;10.30;8.43;;;;;;;19.16;100.00;99621.91;1732813;82;21004;-52
2021/06/15 01:17:14;;;;;;;9.85;8.65;;;;;;;19.15;100.00;99619.32;1734397;82;21092;-57
2021/06/15 01:19:57;;;;;;;12.85;9.88;;;;;;;19.15;100.00;99611.98;1732939;82;20878;-51
2021/06/15 01:22:46;;;;;;;10.00;8.80;;;;;;;19.17;100.00;99612.70;1733509;82;21000;-51
2021/06/15 01:26:02;;;;;;;11.20;8.55;;;;;;;19.17;100.00;99611.84;1732843;82;20952;-50
2021/06/15 01:28:40;;;;;;;11.50;8.88;;;;;;;19.18;100.00;99619.92;1732925;82;20972;-51
2021/06/15 01:31:28;;;;;;;12.45;8.95;;;;;;;19.19;100.00;99625.75;1732827;82;21131;-52
2021/06/15 01:34:13;;;;;;;11.90;10.15;;;;;;;19.19;100.00;99621.66;1733311;82;20916;-54
2021/06/15 01:36:49;;;;;;;9.45;8.55;;;;;;;19.19;100.00;99620.28;1733014;82;20936;-52
2021/06/15 01:39:21;;;;;;;11.08;9.30;;;;;;;19.19;100.00;99624.39;1733062;82;20889;-51
2021/06/15 01:42:09;;;;;;;10.48;8.65;;;;;;;19.20;100.00;99627.98;1731401;82;20937;-51
2021/06/15 01:44:37;;;;;;;9.80;8.80;;;;;;;19.20;100.00;99625.25;1712361;82;21223;-51
2021/06/15 01:47:10;;;;;;;9.38;8.33;;;;;;;19.20;100.00;99630.72;1732832;82;20944;-51
2021/06/15 01:49:50;;;;;;;10.13;8.68;;;;;;;19.19;100.00;99626.26;1676532;82;20948;-50
2021/06/15 01:52:17;;;;;;;9.78;8.85;;;;;;;19.18;100.00;99637.70;1713314;82;21394;-51
2021/06/15 01:54:47;;;;;;;9.85;8.85;;;;;;;19.17;100.00;99631.84;1713381;82;20985;-51
2021/06/15 01:57:20;;;;;;;9.80;8.25;;;;;;;19.16;100.00;99632.84;1732811;81;21081;-51
2021/06/15 01:59:49;;;;;;;10.53;9.40;;;;;;;19.17;100.00;99626.38;1732853;82;21406;-52
2021/06/15 02:02:17;;;;;;;8.65;7.55;;;;;;;19.20;100.00;99634.31;1732465;82;20889;-55
2021/06/15 02:04:48;;;;;;;9.95;8.50;;;;;;;19.22;100.00;99631.44;1732552;82;20901;-55
2021/06/15 02:07:19;;;;;;;11.38;8.33;;;;;;;19.23;100.00;99642.27;1734065;82;21406;-57
2021/06/15 02:09:49;;;;;;;9.78;8.88;;;;;;;19.24;100.00;99638.52;1711505;82;21787;-55
2021/06/15 02:12:40;;;;;;;10.98;8.68;;;;;;;19.28;100.00;99637.25;1714977;82;20873;-56
2021/06/15 02:15:20;;;;;;;10.72;8.23;;;;;;;19.41;100.00;99641.63;1706028;84;20950;-56
2021/06/15 02:17:53;;;;;;;10.23;9.13;;;;;;;19.53;100.00;99647.38;1659913;82;20912;-56
2021/06/15 02:20:40;;;;;;;11.28;9.73;;;;;;;19.67;100.00;99647.05;1732466;81;20909;-57
2021/06/15 02:23:07;;;;;;;9.95;8.95;;;;;;;19.83;100.00;99637.81;1733575;81;21131;-56
2021/06/15 02:25:37;;;;;;;10.13;9.08;;;;;;;20.03;100.00;99637.88;1710882;82;20940;-56
2021/06/15 02:28:04;;;;;;;9.65;8.68;;;;;;;20.18;100.00;99641.92;1731744;81;20947;-56
2021/06/15 02:30:31;;;;;;;8.90;8.10;;;;;;;20.33;100.00;99643.77;1733256;82;21385;-57
2021/06/15 02:33:17;;;;;;;9.25;8.28;;;;;;;20.48;100.00;99626.44;1731886;82;20920;-55
2021/06/15 02:35:49;;;;;;;8.95;8.10;;;;;;;20.60;100.00;99630.26;1732506;82;21357;-55
2021/06/15 02:38:24;;;;;;;11.35;8.60;;;;;;;20.75;100.00;99627.09;1710048;82;21466;-56
2021/06/15 02:40:51;;;;;;;8.70;7.80;;;;;;;20.90;100.00;99631.98;1732853;82;21456;-51
2021/06/15 02:43:18;;;;;;;9.58;8.45;;;;;;;21.11;100.00;99637.81;1731986;82;21318;-59
2021/06/15 02:45:45;;;;;;;11.15;8.85;;;;;;;21.28;100.00;99638.41;1732867;82;20972;-59
2021/06/15 02:48:12;;;;;;;10.45;9.33;;;;;;;21.42;100.00;99642.09;1711291;82;21102;-60
2021/06/15 02:50:47;;;;;;;12.50;8.75;;;;;;;21.50;100.00;99640.47;1733358;82;20951;-52
2021/06/15 02:53:32;;;;;;;8.95;8.03;;;;;;;21.61;100.00;99644.41;1732889;82;21056;-53
2021/06/15 02:56:07;;;;;;;11.35;8.43;;;;;;;21.65;100.00;99652.70;1731238;82;20979;-54
2021/06/15 02:58:36;;;;;;;9.93;8.93;;;;;;;21.54;100.00;99647.40;1732319;82;21044;-53
2021/06/15 03:01:03;;;;;;;10.30;9.25;;;;;;;21.49;100.00;99644.23;1733109;82;21044;-53
2021/06/15 03:03:30;;;;;;;9.90;8.93;;;;;;;21.53;100.00;99648.42;1732378;82;21518;-54
2021/06/15 03:05:57;;;;;;;10.00;8.48;;;;;;;21.55;100.00;99651.36;1731733;82;20928;-54
2021/06/15 03:08:24;;;;;;;10.93;8.60;;;;;;;21.42;100.00;99649.47;1732884;82;21024;-56
2021/06/15 03:10:51;;;;;;;10.35;9.25;;;;;;;21.29;100.00;99642.87;1711520;82;21465;-56
2021/06/15 03:13:44;;;;;;;11.85;8.60;;;;;;;21.31;100.00;99644.16;1733193;82;21123;-55
2021/06/15 03:16:16;;;;;;;9.18;8.23;;;;;;;21.50;100.00;99650.08;1732901;82;20876;-57
2021/06/15 03:18:48;;;;;;;9.55;8.60;;;;;;;21.76;100.00;99652.50;1713254;82;21425;-56
2021/06/15 03:21:19;;;;;;;9.73;8.75;;;;;;;21.97;100.00;99640.77;1722814;82;20908;-51
2021/06/15 03:23:56;;;;;;;9.40;8.38;;;;;;;22.24;100.00;99643.17;1733040;82;20881;-50
2021/06/15 03:26:34;;;;;;;9.93;8.83;;;;;;;22.47;99.90;99648.57;1733120;82;20885;-50
2021/06/15 03:29:01;;;;;;;9.25;7.95;;;;;;;22.61;98.24;99639.45;1714624;82;20940;-52
2021/06/15 03:31:31;;;;;;;10.10;8.75;;;;;;;22.70;97.66;99650.37;1732807;82;21505;-53
2021/06/15 03:33:59;;;;;;;11.60;8.43;;;;;;;22.86;97.72;99652.41;1733005;82;20948;-54
2021/06/15 03:36:27;;;;;;;10.58;9.03;;;;;;;23.12;94.87;99653.01;1732662;81;20909;-54
2021/06/15 03:38:56;;;;;;;9.48;8.58;;;;;;;23.22;93.93;99655.12;1732934;82;21310;-55
2021/06/15 03:41:24;;;;;;;10.88;8.60;;;;;;;23.37;93.85;99653.52;1732578;82;20916;-55
2021/06/15 03:43:52;;;;;;;11.05;9.88;;;;;;;23.68;91.01;99650.30;1733546;82;21594;-52
2021/06/15 03:46:20;;;;;;;10.48;9.23;;;;;;;23.80;90.99;99660.00;1713725;82;20928;-53
2021/06/15 03:48:48;;;;;;;13.90;9.75;;;;;;;23.93;89.67;99660.42;1711996;82;21513;-54
2021/06/15 03:51:24;;;;;;;11.70;9.80;;;;;;;23.94;89.19;99668.17;1710795;82;21058;-52
2021/06/15 03:53:51;;;;;;;11.43;9.85;;;;;;;23.97;88.91;99660.94;1731257;82;20881;-53
2021/06/15 03:56:18;;;;;;;12.18;9.05;;;;;;;24.13;87.89;99660.14;1732448;82;20932;-55
2021/06/15 03:58:45;;;;;;;13.20;9.40;;;;;;;24.28;85.40;99661.23;1730222;82;21916;-55
2021/06/15 04:01:13;;;;;;;11.80;9.58;;;;;;;24.52;84.64;99654.98;1709277;82;20912;-56
2021/06/15 04:03:41;;;;;;;16.42;9.60;;;;;;;24.68;83.06;99649.48;1731086;81;21063;-53
2021/06/15 04:06:08;;;;;;;12.63;9.88;;;;;;;24.86;82.29;99652.08;1727862;81;20922;-56
2021/06/15 04:08:37;;;;;;;14.20;9.08;;;;;;;24.99;80.22;99655.21;1713052;81;21076;-55
2021/06/15 04:11:04;;;;;;;11.25;9.45;;;;;;;25.23;79.90;99659.02;1752025;81;20919;-54
2021/06/15 04:13:31;;;;;;;11.12;9.25;;;;;;;25.47;78.37;99659.53;1753144;81;22048;-54
2021/06/15 04:15:58;;;;;;;11.30;8.30;;;;;;;25.71;76.46;99664.98;1753295;81;21099;-54
2021/06/15 04:18:26;;;;;;;10.40;8.65;;;;;;;25.80;73.52;99672.77;1751547;80;20970;-55
2021/06/15 04:20:55;;;;;;;8.85;7.55;;;;;;;25.62;73.17;99672.97;1725209;81;20971;-54
2021/06/15 04:23:28;;;;;;;8.78;7.20;;;;;;;25.59;74.28;99670.02;1753440;80;21463;-55
2021/06/15 04:25:55;;;;;;;11.35;7.42;;;;;;;25.70;72.83;99665.16;1752379;81;20987;-54
2021/06/15 04:28:22;;;;;;;8.50;7.10;;;;;;;25.72;72.50;99674.13;1714668;81;21822;-55
2021/06/15 04:30:50;;;;;;;7.92;7.12;;;;;;;25.88;72.36;99676.88;1752499;81;20978;-57
2021/06/15 04:33:17;;;;;;;9.53;7.22;;;;;;;26.06;71.61;99676.66;1752974;81;21481;-56
2021/06/15 04:35:48;;;;;;;9.98;8.30;;;;;;;26.00;70.57;99676.86;1726742;81;20935;-55
2021/06/15 04:38:21;;;;;;;8.98;8.18;;;;;;;25.96;70.31;99675.48;1753205;80;20918;-55
2021/06/15 04:40:51;;;;;;;8.33;7.53;;;;;;;26.07;71.27;99676.48;1752771;81;21133;-57
2021/06/15 04:43:21;;;;;;;;;;;;;;;26.21;69.79;99672.64;1755346;80;21425;-57
2021/06/15 04:45:48;;;;;;;8.13;7.30;;;;;;;26.31;69.06;99671.86;1753321;81;20117;-57
2021/06/15 04:48:31;;;;;;;10.40;7.42;;;;;;;26.35;69.08;99675.48;1752426;81;20913;-63
2021/06/15 04:51:00;;;;;;;8.60;7.72;;;;;;;26.28;69.06;99673.63;1754070;81;20939;-67
2021/06/15 04:53:34;;;;;;;11.25;8.10;;;;;;;26.03;70.01;99670.95;1754165;81;21253;-65
2021/06/15 04:56:03;;;;;;;10.35;8.30;;;;;;;25.68;72.65;99671.41;1754142;81;21003;-59
2021/06/15 04:58:31;;;;;;;11.15;8.10;;;;;;;25.30;73.61;99668.32;1753720;81;20967;-60
2021/06/15 05:01:00;;;;;;;9.55;7.90;;;;;;;25.01;74.81;99672.45;1724693;81;20995;-63
2021/06/15 05:03:29;;;;;;;12.15;8.50;;;;;;;24.66;76.27;99674.12;1753609;80;20963;-65
2021/06/15 05:06:00;;;;;;;9.75;8.13;;;;;;;24.22;78.87;99675.69;1753981;81;21103;-60
2021/06/15 05:08:27;;;;;;;10.25;8.28;;;;;;;24.00;80.77;99678.02;1751964;80;21575;-56
2021/06/15 05:10:56;;;;;;;9.03;8.18;;;;;;;23.84;83.68;99682.06;1752515;80;20984;-57
2021/06/15 05:13:23;;;;;;;11.00;8.40;;;;;;;23.71;84.74;99673.41;1722105;81;20965;-61
2021/06/15 05:15:50;;;;;;;12.25;8.75;;;;;;;23.63;85.23;99678.84;1753783;81;20954;-59
2021/06/15 05:18:17;;;;;;;11.48;7.40;;;;;;;23.60;85.74;99677.77;1753642;81;21624;-60
2021/06/15 05:20:44;;;;;;;9.55;8.55;;;;;;;23.44;86.47;99676.64;1725146;81;21066;-58
2021/06/15 05:23:17;;;;;;;9.85;7.85;;;;;;;23.30;87.52;99671.70;1753648;81;20931;-53
2021/06/15 05:25:44;;;;;;;8.90;8.00;;;;;;;23.22;88.47;99668.88;1753770;81;20970;-54
2021/06/15 05:28:11;;;;;;;9.70;8.70;;;;;;;23.17;89.27;99671.24;1727091;81;21462;-53
2021/06/15 05:30:38;;;;;;;11.78;9.48;;;;;;;23.22;91.46;99668.88;1755025;80;21078;-52
2021/06/15 05:33:05;;;;;;;9.73;8.73;;;;;;;23.21;91.91;99668.02;1754173;81;20911;-52
2021/06/15 05:35:32;;;;;;;9.78;8.78;;;;;;;23.24;91.07;99680.61;1754933;81;20943;-52
2021/06/15 05:37:59;;;;;;;11.43;9.65;;;;;;;23.34;91.33;99680.00;1754299;81;20919;-53
2021/06/15 05:40:26;;;;;;;10.63;8.43;;;;;;;23.66;90.36;99682.66;1750297;80;20879;-57
2021/06/15 05:42:53;;;;;;;10.98;9.98;;;;;;;23.95;88.38;99687.28;1753696;80;21480;-51
2021/06/15 05:45:20;;;;;;;10.48;8.85;;;;;;;24.19;87.46;99684.31;1750136;80;20947;-50
2021/06/15 05:47:47;;;;;;;9.73;8.75;;;;;;;24.51;85.94;99686.34;1753388;80;21030;-53
2021/06/15 05:50:14;;;;;;;8.63;7.83;;;;;;;24.90;82.79;99672.79;1751540;80;20955;-50
2021/06/15 05:52:43;;;;;;;10.10;8.53;;;;;;;25.33;80.92;99681.79;1753363;81;20934;-50
2021/06/15 05:55:12;;;;;;;8.95;8.13;;;;;;;25.73;77.70;99683.64;1752085;81;21263;-51
2021/06/15 05:57:39;;;;;;;9.30;8.40;;;;;;;26.01;74.73;99684.11;1753313;80;21408;-53
2021/06/15 06:00:08;;;;;;;8.20;7.50;;;;;;;26.11;73.84;99682.00;1752687;80;20939;-54
2021/06/15 06:02:36;;;;;;;9.00;8.20;;;;;;;26.57;72.76;99679.36;1752832;80;20943;-54
2021/06/15 06:10:18;;;;;;;7.00;6.40;;;;;;;27.88;64.71;99681.09;1741583;81;20967;-52
2021/06/15 06:12:44;;;;;;;9.53;7.03;;;;;;;28.04;63.51;99679.52;1728366;81;20979;-53
2021/06/15 06:15:13;;;;;;;8.15;6.20;;;;;;;28.16;62.25;99675.20;1731201;81;21393;-51
2021/06/15 06:17:42;;;;;;;8.45;6.22;;;;;;;28.24;61.71;99684.48;1731859;81;21446;-53
2021/06/15 06:20:10;;;;;;;8.50;7.03;;;;;;;28.22;61.44;99680.50;1732504;82;21120;-52
2021/06/15 06:22:37;;;;;;;7.17;6.33;;;;;;;28.18;61.57;99677.27;1731369;81;21338;-52
2021/06/15 06:25:05;;;;;;;7.30;6.55;;;;;;;28.44;61.70;99670.35;1712077;82;21035;-52
2021/06/15 06:27:32;;;;;;;9.30;6.05;;;;;;;28.73;60.07;99678.29;1730336;81;21059;-53
2021/06/15 06:30:00;;;;;;;11.20;8.00;;;;;;;28.95;58.71;99675.89;1731774;82;20956;-54
2021/06/15 06:32:27;;;;;;;6.78;6.17;;;;;;;29.10;58.65;99677.22;1731813;81;21794;-54
2021/06/15 06:34:54;;;;;;;7.30;5.85;;;;;;;29.44;57.39;99675.06;1729948;82;20889;-52
2021/06/15 06:37:21;;;;;;;7.10;6.40;;;;;;;29.56;56.66;99669.83;1729675;81;21032;-52
2021/06/15 06:39:48;;;;;;;7.67;6.10;;;;;;;29.66;56.40;99671.20;1728811;82;20896;-54
2021/06/15 06:42:15;;;;;;;6.72;6.03;;;;;;;29.89;55.42;99667.31;1731847;81;20999;-53
2021/06/15 06:44:42;;;;;;;6.83;5.65;;;;;;;30.11;53.71;99675.89;1730537;81;21088;-53
2021/06/15 06:47:09;;;;;;;6.47;5.42;;;;;;;30.14;53.51;99676.88;1732716;81;21489;-57
2021/06/15 06:49:36;;;;;;;8.40;5.85;;;;;;;30.34;52.36;99677.53;1731452;82;21485;-54
2021/06/15 06:52:04;;;;;;;5.90;5.35;;;;;;;30.36;52.25;99673.48;1712308;82;21485;-53
2021/06/15 06:54:31;;;;;;;6.42;5.80;;;;;;;30.50;50.31;99673.84;1728616;82;21528;-54
2021/06/15 06:56:58;;;;;;;6.33;5.55;;;;;;;30.39;50.61;99676.38;1733019;82;21774;-56
2021/06/15 06:59:25;;;;;;;6.37;5.83;;;;;;;30.46;50.14;99667.52;1730177;81;21944;-52
2021/06/15 07:01:53;;;;;;;7.20;5.97;;;;;;;30.68;49.87;99664.94;1731708;81;21048;-54
2021/06/15 07:04:20;;;;;;;7.00;6.40;;;;;;;30.98;48.84;99668.77;1731962;81;21047;-53
2021/06/15 07:06:48;;;;;;;7.53;6.55;;;;;;;30.68;49.25;99664.94;1733053;82;20972;-53
2021/06/15 07:09:15;;;;;;;7.33;6.45;;;;;;;30.20;50.51;99664.95;1733282;80;21089;-53
2021/06/15 07:11:43;;;;;;;7.92;6.53;;;;;;;29.72;52.16;99657.91;1747306;82;20939;-53
2021/06/15 07:14:10;;;;;;;8.98;6.83;;;;;;;29.23;53.69;99660.13;1746504;80;21006;-51
2021/06/15 07:16:37;;;;;;;8.10;7.30;;;;;;;28.78;55.20;99665.54;1746911;80;20927;-52
2021/06/15 07:19:04;;;;;;;8.53;7.65;;;;;;;28.52;56.35;99660.54;1745724;82;21547;-52
2021/06/15 07:21:30;;;;;;;8.90;7.97;;;;;;;28.25;57.40;99649.61;1746378;82;21134;-53
2021/06/15 07:23:58;;;;;;;9.85;8.15;;;;;;;27.88;58.49;99651.98;1745937;80;20892;-58
2021/06/15 07:26:25;;;;;;;9.53;8.28;;;;;;;27.50;60.16;99653.41;1746108;80;20988;-58
2021/06/15 07:28:52;;;;;;;8.93;8.08;;;;;;;27.14;62.50;99647.69;1746087;80;21528;-61
2021/06/15 07:31:19;;;;;;;10.82;7.65;;;;;;;26.74;64.43;99646.94;1744440;80;21444;-55
2021/06/15 07:33:46;;;;;;;9.85;8.30;;;;;;;26.61;65.26;99642.52;1746990;80;21059;-55
2021/06/15 07:36:12;;;;;;;9.85;8.23;;;;;;;26.50;66.08;99647.95;1745373;80;20888;-57
2021/06/15 07:38:39;;;;;;;9.15;8.20;;;;;;;26.39;66.20;99642.80;1746100;82;20940;-55
2021/06/15 07:41:06;;;;;;;11.08;9.48;;;;;;;26.26;68.84;99649.42;1746077;80;21469;-55
2021/06/15 07:43:34;;;;;;;11.20;9.35;;;;;;;26.10;68.71;99644.34;1745161;82;21816;-54
2021/06/15 07:46:00;;;;;;;13.58;9.43;;;;;;;25.99;70.58;99639.17;1745645;80;21107;-53
2021/06/15 07:48:27;;;;;;;11.57;8.90;;;;;;;25.83;72.22;99642.00;1746289;82;21084;-54
2021/06/15 07:50:54;;;;;;;11.15;9.88;;;;;;;25.74;73.53;99636.16;1746465;80;21532;-54
2021/06/15 07:53:22;;;;;;;12.80;9.25;;;;;;;25.73;73.96;99639.97;1746561;80;20908;-54
2021/06/15 07:55:49;;;;;;;14.73;9.85;;;;;;;25.78;73.96;99643.05;1745710;80;21428;-54
2021/06/15 07:58:16;;;;;;;11.83;9.35;;;;;;;25.76;73.42;99631.33;1746857;82;21110;-55
2021/06/15 08:00:43;;;;;;;9.98;8.45;;;;;;;25.71;74.00;99629.59;1745550;80;21445;-55
2021/06/15 08:03:10;;;;;;;9.53;8.58;;;;;;;25.75;74.97;99632.38;1744242;82;21006;-55
2021/06/15 08:05:38;;;;;;;13.53;9.03;;;;;;;25.71;74.59;99628.20;1743624;80;22005;-56
2021/06/15 08:08:05;;;;;;;8.58;7.78;;;;;;;25.59;74.52;99632.73;1742909;80;20908;-55
2021/06/15 08:10:32;;;;;;;9.48;8.48;;;;;;;25.54;74.34;99635.16;1745179;80;21721;-57
2021/06/15 08:13:01;;;;;;;8.73;7.92;;;;;;;25.51;74.17;99624.45;1745081;82;21504;-57
2021/06/15 08:15:28;;;;;;;11.50;7.65;;;;;;;25.55;75.85;99619.45;1746858;80;20942;-56
2021/06/15 08:17:55;;;;;;;10.25;7.85;;;;;;;25.63;73.04;99614.44;1746268;82;20972;-56
2021/06/15 08:20:22;;;;;;;8.58;7.65;;;;;;;25.71;73.11;99615.77;1745468;80;20972;-57
2021/06/15 08:22:49;;;;;;;10.50;7.83;;;;;;;25.75;72.86;99617.19;1744715;80;21118;-57
2021/06/15 08:25:16;;;;;;;11.20;8.10;;;;;;;25.77;71.66;99609.56;1746202;80;21534;-58
2021/06/15 08:27:43;;;;;;;7.10;6.40;;;;;;;25.74;71.39;99609.42;1745930;80;21635;-56
2021/06/15 08:30:11;;;;;;;7.95;7.25;;;;;;;25.69;71.33;99606.81;1742342;82;21006;-57
2021/06/15 08:32:39;;;;;;;9.63;7.37;;;;;;;25.70;73.09;99608.53;1744839;80;20952;-59
2021/06/15 08:35:07;;;;;;;8.23;6.72;;;;;;;25.73;71.47;99605.43;1744002;80;20993;-59
2021/06/15 08:37:37;;;;;;;6.60;5.90;;;;;;;25.80;70.54;99595.41;1744231;80;21560;-57
2021/06/15 08:40:05;;;;;;;10.33;5.83;;;;;;;25.89;68.48;99594.34;1745974;80;20951;-57
2021/06/15 08:42:33;;;;;;;9.08;6.22;;;;;;;25.93;66.71;99598.45;1745583;82;20963;-56
2021/06/15 08:45:00;;;;;;;6.65;5.70;;;;;;;25.99;65.91;99596.86;1743890;80;20916;-57
2021/06/15 08:47:27;;;;;;;6.60;6.00;;;;;;;25.97;66.31;99595.67;1746938;80;21682;-57
2021/06/15 08:49:54;;;;;;;9.90;6.53;;;;;;;25.96;66.85;99595.34;1743810;80;20987;-56
2021/06/15 08:52:26;;;;;;;6.20;5.70;;;;;;;25.96;67.09;99592.58;1743737;82;21469;-57
2021/06/15 08:54:49;;;;;;;8.33;6.22;;;;;;;25.97;67.11;99595.67;1745803;80;20963;-58
2021/06/15 08:57:18;;;;;;;7.08;5.70;;;;;;;25.99;67.30;99589.43;1743805;80;21381;-57
2021/06/15 08:59:45;;;;;;;6.90;5.58;;;;;;;26.04;67.02;99588.37;1746780;80;21118;-57
2021/06/15 09:02:12;;;;;;;8.13;5.20;;;;;;;26.09;66.03;99588.69;1746184;82;21453;-58
2021/06/15 09:04:39;;;;;;;3.75;3.45;;;;;;;26.13;62.21;99580.38;1719551;82;21451;-57
2021/06/15 09:07:07;;;;;;;4.03;3.60;;;;;;;26.23;58.38;99587.59;1744223;82;21583;-58
2021/06/15 09:09:46;;;;;;;10.35;5.10;;;;;;;26.33;56.13;99582.70;1745596;80;20915;-56
2021/06/15 09:12:20;;;;;;;7.53;5.60;;;;;;;26.44;59.23;99583.69;1745197;81;21781;-57
2021/06/15 09:14:53;;;;;;;5.80;5.25;;;;;;;26.50;60.83;99576.56;1744740;82;20900;-57
2021/06/15 09:17:33;;;;;;;11.53;4.60;;;;;;;26.51;60.35;99576.89;1746254;81;20986;-56
2021/06/15 09:20:24;;;;;;;5.50;4.20;;;;;;;26.52;59.54;99576.70;1745989;82;21019;-58
2021/06/15 09:23:04;;;;;;;8.20;3.72;;;;;;;26.54;58.87;99571.86;1742907;80;20928;-58
2021/06/15 09:25:31;;;;;;;6.67;3.17;;;;;;;26.58;56.54;99564.92;1744164;80;21095;-59
2021/06/15 09:31:43;;;;;;;3.60;3.20;;;;;;;27.02;52.04;99569.73;1850821;74;22527;-57
2021/06/15 09:34:15;;;;;;;4.22;2.72;;;;;;;27.07;51.20;99575.59;1820027;75;20931;-58
2021/06/15 09:36:42;;;;;;;4.12;2.87;;;;;;;27.15;50.18;99572.73;1820816;76;21186;-58
2021/06/15 09:39:09;;;;;;;4.53;2.85;;;;;;;27.24;48.55;99567.13;1759832;77;21069;-57
2021/06/15 09:41:43;;;;;;;3.02;2.72;;;;;;;27.26;48.57;99570.55;1822123;76;20897;-58
2021/06/15 09:44:24;;;;;;;3.87;2.83;;;;;;;27.28;48.99;99564.31;1823713;76;20992;-57
2021/06/15 09:46:57;;;;;;;5.62;2.80;;;;;;;27.31;48.70;99557.00;1819046;77;20972;-51
2021/06/15 09:49:43;;;;;;;3.72;2.77;;;;;;;27.38;49.70;99557.98;1753315;79;21122;-51
2021/06/15 09:52:28;;;;;;;6.53;2.70;;;;;;;27.42;46.95;99557.38;1752628;79;20967;-52
2021/06/15 09:55:00;;;;;;;4.25;2.55;;;;;;;27.44;45.32;99553.06;1749648;79;21595;-49
2021/06/15 09:57:31;;;;;;;3.35;2.77;;;;;;;27.42;46.25;99556.52;1752171;79;20962;-50
2021/06/15 10:00:10;;;;;;;3.00;2.67;;;;;;;27.40;47.70;99555.87;1780432;78;20943;-51
2021/06/15 10:02:58;;;;;;;4.03;2.70;;;;;;;27.42;48.16;99553.75;1781339;77;21090;-51
2021/06/15 10:05:31;;;;;;;3.02;2.72;;;;;;;27.47;48.65;99551.27;1785223;78;20896;-52
2021/06/15 10:08:03;;;;;;;3.77;2.90;;;;;;;27.57;48.29;99542.67;1783098;79;20896;-51
2021/06/15 10:10:35;;;;;;;5.20;2.92;;;;;;;27.64;47.64;99552.79;1786612;78;20959;-51
2021/06/15 10:13:02;;;;;;;4.10;2.83;;;;;;;27.67;47.41;99549.65;1781912;77;21441;-51
2021/06/15 10:15:29;;;;;;;3.33;3.02;;;;;;;27.64;48.03;99549.16;1783295;77;21767;-50
2021/06/15 10:17:57;;;;;;;6.28;2.67;;;;;;;27.62;47.05;99536.89;1780369;79;21706;-51
2021/06/15 10:20:30;;;;;;;4.10;2.92;;;;;;;27.65;47.29;99542.06;1780530;77;20963;-50
2021/06/15 10:22:57;;;;;;;4.55;2.80;;;;;;;27.76;46.30;99544.05;1779620;79;21650;-50
2021/06/15 10:25:25;;;;;;;2.98;2.40;;;;;;;27.77;45.66;99542.98;1797558;78;20983;-51
2021/06/15 10:27:55;;;;;;;3.00;2.70;;;;;;;27.76;44.26;99538.50;1787516;77;21107;-52
2021/06/15 10:30:34;;;;;;;3.75;2.60;;;;;;;27.77;44.21;99542.98;1785341;77;20908;-52
2021/06/15 10:33:14;;;;;;;3.65;2.83;;;;;;;27.78;44.13;99541.93;1784337;77;20967;-50
2021/06/15 10:35:57;;;;;;;4.53;2.98;;;;;;;27.75;45.97;99543.19;1795951;77;21056;-51
2021/06/15 10:38:35;;;;;;;3.98;2.55;;;;;;;27.73;46.85;99549.96;1783675;77;21314;-51
2021/06/15 10:41:03;;;;;;;2.98;2.50;;;;;;;27.61;46.66;99550.42;1786238;77;21702;-52
2021/06/15 10:43:37;;;;;;;3.20;2.90;;;;;;;27.47;47.18;99548.50;1787706;78;20920;-50
2021/06/15 10:46:19;;;;;;;4.40;2.62;;;;;;;27.39;47.55;99545.84;1790276;77;21390;-58
2021/06/15 10:48:47;;;;;;;5.17;2.60;;;;;;;27.34;47.77;99544.17;1782538;77;20943;-58
2021/06/15 10:51:29;;;;;;;2.92;2.40;;;;;;;27.31;47.47;99532.93;1783272;77;21574;-58
2021/06/15 10:54:04;;;;;;;3.00;2.33;;;;;;;27.34;44.81;99537.25;1774745;79;21113;-59
2021/06/15 10:56:35;;;;;;;2.60;2.40;;;;;;;27.37;44.36;99543.77;1791655;78;20955;-57
2021/06/15 10:59:07;;;;;;;;;;;;;;;27.44;44.75;99535.05;1782997;79;20908;-57
2021/06/15 11:01:38;;;;;;;3.08;2.35;;;;;;;27.48;44.79;99532.20;1791469;78;20124;-57
2021/06/15 11:04:13;;;;;;;3.27;2.62;;;;;;;27.56;45.15;99528.50;1793895;77;21476;-57
2021/06/15 11:06:45;;;;;;;3.00;2.62;;;;;;;27.60;44.61;99518.23;1794057;78;21707;-58
2021/06/15 11:09:15;;;;;;;3.87;2.80;;;;;;;27.71;45.02;99525.22;1780876;79;20959;-58
2021/06/15 11:12:04;;;;;;;4.35;2.85;;;;;;;27.84;45.40;99516.20;1798744;78;21554;-55
2021/06/15 11:14:31;;;;;;;2.75;2.55;;;;;;;27.97;44.68;99513.61;1696267;78;21094;-55
2021/06/15 11:17:00;;;;;;;3.02;2.33;;;;;;;28.08;43.42;99492.83;1788084;78;20900;-52
2021/06/15 11:19:31;;;;;;;2.75;2.27;;;;;;;28.11;44.11;99496.05;1783514;77;21125;-53
2021/06/15 11:22:09;;;;;;;3.85;2.40;;;;;;;28.05;43.86;99501.00;1785111;77;21498;-53
2021/06/15 11:24:50;;;;;;;5.70;2.60;;;;;;;27.93;43.88;99494.25;1782318;77;21456;-51
2021/06/15 11:27:24;;;;;;;;;;;;;;;27.78;42.26;99490.13;1784396;77;21401;-52
2021/06/15 11:29:52;;;;;;;3.20;2.42;;;;;;;27.69;41.99;99492.11;1777898;79;20156;-51
2021/06/15 11:32:30;;;;;;;6.92;2.25;;;;;;;27.63;42.40;99483.19;1751491;79;21239;-51
2021/06/15 11:35:03;;;;;;;4.40;2.40;;;;;;;27.64;42.53;99477.97;1782232;77;20860;-51
2021/06/15 11:37:46;;;;;;;2.65;2.20;;;;;;;27.68;42.73;99464.06;1783867;77;21093;-52
2021/06/15 11:40:31;;;;;;;4.20;2.60;;;;;;;27.76;42.92;99463.67;1781238;77;20947;-51
2021/06/15 11:43:16;;;;;;;4.28;2.60;;;;;;;27.85;42.99;99451.39;1757218;79;20950;-52
2021/06/15 11:45:50;;;;;;;2.70;2.08;;;;;;;27.96;42.66;99467.51;1782483;78;21090;-52
2021/06/15 11:48:40;;;;;;;2.87;2.40;;;;;;;28.08;40.96;99459.03;1779880;79;21273;-50
2021/06/15 11:51:05;;;;;;;2.87;2.27;;;;;;;28.18;40.78;99452.63;1782114;77;21474;-54
2021/06/15 11:53:36;;;;;;;3.65;2.60;;;;;;;28.23;40.97;99462.25;1780503;79;20943;-53
2021/06/15 11:56:04;;;;;;;3.33;2.62;;;;;;;28.24;41.94;99451.51;1780868;78;21456;-53
2021/06/15 11:58:36;;;;;;;4.00;2.77;;;;;;;28.25;42.37;99443.52;1779616;79;21108;-50